createdAt,value
2023-03-13T00:00:01.059Z,8.59
2023-03-13T00:05:03.780Z,8.48
2023-03-13T00:10:06.661Z,8.39
2023-03-13T00:15:08.983Z,8.32
2023-03-13T00:20:11.432Z,8.38
2023-03-13T00:25:13.134Z,8.53
2023-03-13T00:30:14.973Z,8.55
2023-03-13T00:35:16.934Z,8.48
2023-03-13T00:40:20.251Z,8.57
2023-03-13T00:45:22.121Z,8.64
2023-03-13T00:50:23.766Z,8.62
2023-03-13T00:55:25.389Z,8.54
2023-03-13T01:00:27.041Z,8.58
2023-03-13T01:05:28.783Z,8.61
2023-03-13T01:10:30.428Z,8.72
2023-03-13T01:15:35.087Z,8.91
2023-03-13T01:20:38.567Z,8.81
2023-03-13T01:25:40.666Z,8.77
2023-03-13T01:30:42.671Z,8.86
2023-03-13T01:35:45.898Z,8.84
2023-03-13T01:40:49.535Z,8.82
2023-03-13T01:45:54.719Z,8.70
2023-03-13T01:51:01.721Z,8.73
2023-03-13T01:56:08.221Z,8.71
2023-03-13T02:01:10.967Z,8.66
2023-03-13T02:06:13.125Z,8.87
2023-03-13T02:11:33.051Z,8.67
2023-03-13T02:16:35.782Z,8.66
2023-03-13T02:21:49.389Z,8.50
2023-03-13T02:26:51.121Z,8.41
2023-03-13T02:31:53.856Z,8.31
2023-03-13T02:36:56.503Z,8.33
2023-03-13T02:42:00.211Z,8.28
2023-03-13T02:47:02.415Z,8.16
2023-03-13T02:52:20.710Z,8.33
2023-03-13T02:57:22.431Z,8.16
2023-03-13T03:02:24.449Z,8.05
2023-03-13T03:07:27.948Z,8.06
2023-03-13T03:12:29.719Z,8.21
2023-03-13T03:17:31.514Z,8.26
2023-03-13T03:22:34.678Z,8.14
2023-03-13T03:27:40.156Z,8.06
2023-03-13T03:32:43.346Z,7.83
2023-03-13T03:37:45.287Z,8.02
2023-03-13T03:42:47.873Z,8.02
2023-03-13T03:47:49.605Z,7.96
2023-03-13T03:52:51.456Z,7.73
2023-03-13T03:57:53.925Z,7.65
2023-03-13T04:03:13.862Z,7.68
2023-03-13T04:08:16.031Z,7.54
2023-03-13T04:13:17.791Z,7.75
2023-03-13T04:18:20.828Z,7.80
2023-03-13T04:23:22.778Z,7.48
2023-03-13T04:28:26.918Z,7.42
2023-03-13T04:33:29.544Z,7.44
2023-03-13T04:38:49.513Z,7.62
2023-03-13T04:44:10.032Z,7.67
2023-03-13T04:49:11.973Z,7.80
2023-03-13T04:54:14.097Z,7.95
2023-03-13T04:59:38.475Z,8.11
2023-03-13T05:05:03.785Z,8.41
2023-03-13T05:10:23.951Z,8.52
2023-03-13T05:15:44.390Z,8.66
2023-03-13T05:20:59.072Z,8.65
2023-03-13T05:26:16.117Z,8.72
2023-03-13T05:31:38.337Z,8.80
2023-03-13T05:36:53.711Z,8.74
2023-03-13T05:42:14.032Z,8.74
2023-03-13T05:47:28.438Z,8.63
2023-03-13T05:53:02.438Z,8.90
2023-03-13T05:58:13.994Z,8.68
2023-03-13T06:03:34.685Z,8.91
2023-03-13T06:08:36.680Z,8.89
2023-03-13T06:13:38.414Z,9.01
2023-03-13T06:19:02.966Z,9.02
2023-03-13T06:24:05.118Z,9.10
2023-03-13T06:29:06.793Z,9.13
2023-03-13T06:34:11.559Z,9.34
2023-03-13T06:39:13.423Z,9.59
2023-03-13T06:44:15.286Z,9.47
2023-03-13T06:49:16.972Z,9.68
2023-03-13T06:54:18.714Z,9.84
2023-03-13T06:59:20.418Z,9.86
2023-03-13T07:04:22.146Z,9.93
2023-03-13T07:09:24.025Z,9.89
2023-03-13T07:14:25.741Z,9.97
2023-03-13T07:19:27.519Z,9.97
2023-03-13T07:24:29.312Z,10.02
2023-03-13T07:29:31.008Z,9.97
2023-03-13T07:34:32.707Z,9.78
2023-03-13T07:39:34.365Z,9.60
2023-03-13T07:44:36.141Z,9.45
2023-03-13T07:49:43.993Z,9.42
2023-03-13T07:54:46.801Z,9.42
2023-03-13T07:59:48.546Z,9.45
2023-03-13T08:04:53.880Z,9.63
2023-03-13T08:09:55.662Z,9.52
2023-03-13T08:14:57.759Z,9.48
2023-03-13T08:19:59.418Z,9.52
2023-03-13T08:25:01.076Z,9.68
2023-03-13T08:30:02.772Z,9.69
2023-03-13T08:35:05.255Z,9.66
2023-03-13T08:40:11.434Z,9.86
2023-03-13T08:45:15.630Z,9.94
2023-03-13T08:50:17.319Z,10.06
2023-03-13T08:55:19.013Z,10.18
2023-03-13T09:00:20.902Z,10.27
2023-03-13T09:05:22.522Z,10.45
2023-03-13T09:10:24.185Z,10.38
2023-03-13T09:15:25.962Z,10.55
2023-03-13T09:20:27.618Z,10.49
2023-03-13T09:25:29.549Z,10.75
2023-03-13T09:30:31.224Z,10.81
2023-03-13T09:35:32.873Z,10.83
2023-03-13T09:40:56.515Z,10.66
2023-03-13T09:46:12.012Z,10.61
2023-03-13T09:51:21.415Z,10.74
2023-03-13T09:56:26.437Z,10.99
2023-03-13T10:01:34.520Z,11.11
2023-03-13T10:06:43.852Z,11.39
2023-03-13T10:11:53.660Z,11.50
2023-03-13T10:17:05.248Z,11.52
2023-03-13T10:22:16.200Z,11.70
2023-03-13T10:27:18.139Z,11.68
2023-03-13T10:32:20.840Z,11.99
2023-03-13T10:37:29.401Z,11.99
2023-03-13T10:42:39.994Z,12.10
2023-03-13T10:47:41.696Z,12.33
2023-03-13T10:52:46.414Z,12.48
2023-03-13T10:58:03.537Z,12.59
2023-03-13T11:03:31.685Z,12.97
2023-03-13T11:08:37.359Z,13.07
2023-03-13T11:13:43.972Z,13.18
2023-03-13T11:19:01.301Z,13.49
2023-03-13T11:24:15.428Z,13.53
2023-03-13T11:29:52.620Z,13.35
2023-03-13T11:34:59.531Z,13.16
2023-03-13T11:40:16.962Z,13.08
2023-03-13T11:45:28.448Z,13.01
2023-03-13T11:50:52.451Z,13.06
2023-03-13T11:56:17.866Z,13.25
2023-03-13T12:01:24.466Z,13.13
2023-03-13T12:06:28.722Z,12.96
2023-03-13T12:11:45.208Z,13.08
2023-03-13T12:16:55.042Z,13.34
2023-03-13T12:21:58.727Z,13.37
2023-03-13T12:27:08.475Z,13.77
2023-03-13T12:32:19.697Z,13.95
2023-03-13T12:37:46.439Z,14.19
2023-03-13T12:43:06.104Z,14.34
2023-03-13T12:48:29.821Z,14.21
2023-03-13T12:54:03.492Z,14.31
2023-03-13T12:59:18.142Z,14.48
2023-03-13T13:04:23.698Z,14.61
2023-03-13T13:09:31.397Z,14.70
2023-03-13T13:14:48.328Z,14.92
2023-03-13T13:19:50.452Z,15.43
2023-03-13T13:25:03.020Z,15.82
2023-03-13T13:30:27.832Z,16.07
2023-03-13T13:35:29.781Z,16.37
2023-03-13T13:40:32.235Z,16.37
2023-03-13T13:45:38.721Z,16.02
2023-03-13T13:51:11.003Z,16.00
2023-03-13T13:56:42.804Z,15.79
2023-03-13T14:01:45.289Z,15.63
2023-03-13T14:06:52.206Z,15.60
2023-03-13T14:11:54.181Z,15.77
2023-03-13T14:16:57.277Z,15.89
2023-03-13T14:22:10.546Z,15.98
2023-03-13T14:27:19.649Z,15.87
2023-03-13T14:32:26.557Z,15.85
2023-03-13T14:37:52.332Z,15.71
2023-03-13T14:43:02.274Z,15.81
2023-03-13T14:48:19.517Z,15.73
2023-03-13T14:53:22.845Z,15.80
2023-03-13T14:58:30.555Z,15.89
2023-03-13T15:03:33.490Z,15.73
2023-03-13T15:09:10.640Z,15.81
2023-03-13T15:14:34.320Z,15.81
2023-03-13T15:19:36.275Z,15.74
2023-03-13T15:24:37.999Z,15.58
2023-03-13T15:29:39.746Z,15.45
2023-03-13T15:34:41.387Z,15.55
2023-03-13T15:39:43.048Z,15.58
2023-03-13T15:44:44.746Z,15.35
2023-03-13T15:49:46.566Z,15.53
2023-03-13T15:54:49.563Z,15.47
2023-03-13T15:59:52.689Z,15.36
2023-03-13T16:04:55.962Z,15.44
2023-03-13T16:09:57.614Z,15.57
2023-03-13T16:14:59.395Z,15.38
2023-03-13T16:20:01.084Z,15.44
2023-03-13T16:25:02.915Z,15.29
2023-03-13T16:30:12.255Z,15.04
2023-03-13T16:35:16.512Z,14.92
2023-03-13T16:40:22.611Z,14.61
2023-03-13T16:45:25.032Z,14.73
2023-03-13T16:50:32.128Z,14.56
2023-03-13T16:55:36.790Z,14.30
2023-03-13T17:00:38.807Z,14.28
2023-03-13T17:05:40.586Z,14.49
2023-03-13T17:10:42.286Z,14.14
2023-03-13T17:15:44.145Z,13.92
2023-03-13T17:20:46.817Z,13.66
2023-03-13T17:25:48.575Z,13.76
2023-03-13T17:30:50.292Z,13.56
2023-03-13T17:35:52.044Z,13.75
2023-03-13T17:40:54.359Z,13.75
2023-03-13T17:45:56.671Z,13.89
2023-03-13T17:50:58.599Z,14.00
2023-03-13T17:56:00.269Z,13.80
2023-03-13T18:01:01.910Z,13.51
2023-03-13T18:06:04.116Z,13.53
2023-03-13T18:11:05.973Z,13.86
2023-03-13T18:16:18.169Z,13.92
2023-03-13T18:21:22.114Z,13.97
2023-03-13T18:26:33.666Z,13.66
2023-03-13T18:31:36.431Z,13.57
2023-03-13T18:36:38.529Z,13.58
2023-03-13T18:41:40.459Z,13.62
2023-03-13T18:46:43.928Z,13.52
2023-03-13T18:51:49.286Z,13.70
2023-03-13T18:56:51.223Z,13.76
2023-03-13T19:01:56.113Z,13.81
2023-03-13T19:06:59.928Z,13.76
2023-03-13T19:12:01.766Z,13.67
2023-03-13T19:17:07.122Z,13.81
2023-03-13T19:22:13.596Z,13.77
2023-03-13T19:27:16.882Z,13.72
2023-03-13T19:32:18.996Z,13.27
2023-03-13T19:37:20.951Z,12.70
2023-03-13T19:42:22.723Z,12.58
2023-03-13T19:47:24.381Z,12.36
2023-03-13T19:52:26.069Z,12.14
2023-03-13T19:57:27.860Z,11.97
2023-03-13T20:02:29.630Z,11.74
2023-03-13T20:07:32.568Z,11.76
2023-03-13T20:12:39.360Z,11.66
2023-03-13T20:17:41.095Z,11.53
2023-03-13T20:22:42.779Z,11.33
2023-03-13T20:27:44.450Z,11.25
2023-03-13T20:32:58.771Z,11.13
2023-03-13T20:38:01.909Z,10.94
2023-03-13T20:43:03.686Z,10.99
2023-03-13T20:48:05.662Z,10.89
2023-03-13T20:53:07.616Z,10.79
2023-03-13T20:58:09.317Z,10.76
2023-03-13T21:03:11.760Z,10.82
2023-03-13T21:08:13.533Z,10.81
2023-03-13T21:13:15.285Z,10.79
2023-03-13T21:18:16.941Z,10.86
2023-03-13T21:23:25.329Z,10.94
2023-03-13T21:28:28.159Z,10.94
2023-03-13T21:33:29.941Z,10.99
2023-03-13T21:38:31.724Z,10.80
2023-03-13T21:43:33.483Z,10.77
2023-03-13T21:48:35.133Z,10.81
2023-03-13T21:53:38.087Z,10.83
2023-03-13T21:58:40.010Z,10.75
2023-03-13T22:03:42.253Z,10.70
2023-03-13T22:08:43.988Z,10.84
2023-03-13T22:13:45.805Z,10.86
2023-03-13T22:18:47.486Z,10.81
2023-03-13T22:23:49.241Z,10.65
2023-03-13T22:28:51.230Z,10.55
2023-03-13T22:33:52.855Z,10.64
2023-03-13T22:38:54.540Z,10.56
2023-03-13T22:43:56.172Z,10.50
2023-03-13T22:48:57.949Z,10.57
2023-03-13T22:53:59.685Z,10.59
2023-03-13T22:59:03.013Z,10.77
2023-03-13T23:04:04.789Z,10.86
2023-03-13T23:09:07.392Z,10.75
2023-03-13T23:14:09.110Z,10.67
2023-03-13T23:19:11.032Z,10.60
2023-03-13T23:24:12.843Z,10.42
2023-03-13T23:29:14.586Z,10.48
2023-03-13T23:34:21.826Z,10.55
2023-03-13T23:39:24.011Z,10.68
2023-03-13T23:44:25.773Z,10.57
2023-03-13T23:49:27.451Z,10.73
2023-03-13T23:54:29.173Z,10.85
2023-03-13T23:59:30.948Z,10.85
